Penang/Bayan Lepas, Malaysia
Current Conditions -  °F | °C
As of 8:00 AM on Wednesday 22 Oct 2014 (Local Time) from WMKP Reporting Station
Haze Haze  
Wind Chill: 77°   Ceiling: 27000
Heat Index: 78°   Visibility: 3mi
Dew Point: 75°   Wind: 0mph
Humidity: 94%   Direction: NA
Pressure: 29.88"   Gusts: NA
Location:  5.29°N, 100.28°E
Report Text: WMKP 220000Z 00000KT 5000 HZ FEW020 SCT140 BKN270 25/24 Q1012 NOSIG
Loading
Personal Weather Stations






























Interactive Weather Map
Tropical Storm Tracking
New forecast layout! Learn more

10-Day Weather Forecast

Advertisements
Track Severe Weather on mobile